Terminal Aerodrome Forecast
Issued by NWS

Home | Current Version | Previous Version | Text Only | Print | Product List | Glossary On
Versions: 1 2 3 4 5 6 7 8 9 10 11 12 13 14 15 16
000
FTUS45 KABQ 232054 AAA
TAFTCC
TAF AMD
KTCC 232054Z 2321/2418 10012KT P6SM VCTS BKN060CB
      TEMPO 2321/2324 VRB25G35KT 6SM -TSRA BKN060CB
     FM240100 06008KT P6SM SCT100
     FM240500 01006KT P6SM SCT100
     FM241500 18008KT P6SM SCT060=

USA.gov is the U.S. government's official web portal to all federal, state and local government web resources and services.